sensor_id;sensor_type;location;lat;lon;timestamp;temperature;humidity
36446;DHT22;22472;50.848;-1.216;2022-08-25T00:00:58;19.90;99.90
36446;DHT22;22472;50.848;-1.216;2022-08-25T00:03:25;20.00;99.90
36446;DHT22;22472;50.848;-1.216;2022-08-25T00:05:52;20.00;99.90
36446;DHT22;22472;50.848;-1.216;2022-08-25T00:08:19;20.00;99.90
36446;DHT22;22472;50.848;-1.216;2022-08-25T00:10:46;20.00;99.90
36446;DHT22;22472;50.848;-1.216;2022-08-25T00:13:14;20.00;99.90
36446;DHT22;22472;50.848;-1.216;2022-08-25T00:15:41;20.00;99.90
36446;DHT22;22472;50.848;-1.216;2022-08-25T00:18:08;20.00;99.90
36446;DHT22;22472;50.848;-1.216;2022-08-25T00:20:35;20.00;99.90
36446;DHT22;22472;50.848;-1.216;2022-08-25T00:23:02;20.00;99.90
36446;DHT22;22472;50.848;-1.216;2022-08-25T00:25:29;20.00;99.90
36446;DHT22;22472;50.848;-1.216;2022-08-25T00:27:56;20.00;99.90
36446;DHT22;22472;50.848;-1.216;2022-08-25T00:30:25;20.00;99.90
36446;DHT22;22472;50.848;-1.216;2022-08-25T00:32:52;20.00;99.90
36446;DHT22;22472;50.848;-1.216;2022-08-25T00:35:19;20.00;99.90
36446;DHT22;22472;50.848;-1.216;2022-08-25T00:37:46;20.10;99.90
36446;DHT22;22472;50.848;-1.216;2022-08-25T00:40:13;20.10;99.90
36446;DHT22;22472;50.848;-1.216;2022-08-25T00:42:40;20.00;99.90
36446;DHT22;22472;50.848;-1.216;2022-08-25T00:45:08;20.00;99.90
36446;DHT22;22472;50.848;-1.216;2022-08-25T00:47:36;20.00;99.90
36446;DHT22;22472;50.848;-1.216;2022-08-25T00:50:06;19.90;99.90
36446;DHT22;22472;50.848;-1.216;2022-08-25T00:52:37;19.90;99.90
36446;DHT22;22472;50.848;-1.216;2022-08-25T00:55:09;19.80;99.90
36446;DHT22;22472;50.848;-1.216;2022-08-25T00:57:40;19.80;99.90
36446;DHT22;22472;50.848;-1.216;2022-08-25T01:00:12;19.80;99.90
36446;DHT22;22472;50.848;-1.216;2022-08-25T01:02:42;19.80;99.90
36446;DHT22;22472;50.848;-1.216;2022-08-25T01:05:09;19.80;99.90
36446;DHT22;22472;50.848;-1.216;2022-08-25T01:07:37;19.80;99.90
36446;DHT22;22472;50.848;-1.216;2022-08-25T01:10:06;19.70;99.90
36446;DHT22;22472;50.848;-1.216;2022-08-25T01:12:34;19.70;99.90
36446;DHT22;22472;50.848;-1.216;2022-08-25T01:15:05;19.70;99.90
36446;DHT22;22472;50.848;-1.216;2022-08-25T01:17:34;19.70;99.90
36446;DHT22;22472;50.848;-1.216;2022-08-25T01:20:07;19.70;99.90
36446;DHT22;22472;50.848;-1.216;2022-08-25T01:22:35;19.70;99.90
36446;DHT22;22472;50.848;-1.216;2022-08-25T01:25:10;19.60;99.90
36446;DHT22;22472;50.848;-1.216;2022-08-25T01:27:42;19.50;99.90
36446;DHT22;22472;50.848;-1.216;2022-08-25T01:30:10;19.50;99.90
36446;DHT22;22472;50.848;-1.216;2022-08-25T01:32:37;19.50;99.90
36446;DHT22;22472;50.848;-1.216;2022-08-25T01:35:05;19.50;99.90
36446;DHT22;22472;50.848;-1.216;2022-08-25T01:37:34;19.50;99.90
36446;DHT22;22472;50.848;-1.216;2022-08-25T01:40:02;19.50;99.90
36446;DHT22;22472;50.848;-1.216;2022-08-25T01:42:41;19.40;99.90
36446;DHT22;22472;50.848;-1.216;2022-08-25T01:45:08;19.40;99.90
36446;DHT22;22472;50.848;-1.216;2022-08-25T01:47:36;19.40;99.90
36446;DHT22;22472;50.848;-1.216;2022-08-25T01:50:04;19.50;99.90
36446;DHT22;22472;50.848;-1.216;2022-08-25T01:52:36;19.50;99.90
36446;DHT22;22472;50.848;-1.216;2022-08-25T01:55:05;19.40;99.90
36446;DHT22;22472;50.848;-1.216;2022-08-25T01:57:32;19.50;99.90
36446;DHT22;22472;50.848;-1.216;2022-08-25T01:59:59;19.50;99.90
36446;DHT22;22472;50.848;-1.216;2022-08-25T02:02:26;19.50;99.90
36446;DHT22;22472;50.848;-1.216;2022-08-25T02:04:53;19.50;99.90
36446;DHT22;22472;50.848;-1.216;2022-08-25T02:07:20;19.40;99.90
36446;DHT22;22472;50.848;-1.216;2022-08-25T02:09:48;19.40;99.90
36446;DHT22;22472;50.848;-1.216;2022-08-25T02:12:15;19.50;99.90
36446;DHT22;22472;50.848;-1.216;2022-08-25T02:14:42;19.40;99.90
36446;DHT22;22472;50.848;-1.216;2022-08-25T02:17:09;19.40;99.90
36446;DHT22;22472;50.848;-1.216;2022-08-25T02:19:36;19.40;99.90
36446;DHT22;22472;50.848;-1.216;2022-08-25T02:22:04;19.40;99.90
36446;DHT22;22472;50.848;-1.216;2022-08-25T02:24:31;19.40;99.90
36446;DHT22;22472;50.848;-1.216;2022-08-25T02:27:00;19.40;99.90
36446;DHT22;22472;50.848;-1.216;2022-08-25T02:29:28;19.40;99.90
36446;DHT22;22472;50.848;-1.216;2022-08-25T02:31:55;19.30;99.90
36446;DHT22;22472;50.848;-1.216;2022-08-25T02:34:23;19.30;99.90
36446;DHT22;22472;50.848;-1.216;2022-08-25T02:36:50;19.30;99.90
36446;DHT22;22472;50.848;-1.216;2022-08-25T02:39:17;19.30;99.90
36446;DHT22;22472;50.848;-1.216;2022-08-25T02:41:44;19.20;99.90
36446;DHT22;22472;50.848;-1.216;2022-08-25T02:44:13;19.20;99.90
36446;DHT22;22472;50.848;-1.216;2022-08-25T02:46:40;19.20;99.90
36446;DHT22;22472;50.848;-1.216;2022-08-25T02:49:07;19.10;99.90
36446;DHT22;22472;50.848;-1.216;2022-08-25T02:51:35;19.00;99.90
36446;DHT22;22472;50.848;-1.216;2022-08-25T02:54:03;19.00;99.90
36446;DHT22;22472;50.848;-1.216;2022-08-25T02:56:31;19.00;99.90
36446;DHT22;22472;50.848;-1.216;2022-08-25T02:58:59;19.00;99.90
36446;DHT22;22472;50.848;-1.216;2022-08-25T03:01:28;19.10;99.90
36446;DHT22;22472;50.848;-1.216;2022-08-25T03:03:57;19.10;99.90
36446;DHT22;22472;50.848;-1.216;2022-08-25T03:06:24;19.20;99.90
36446;DHT22;22472;50.848;-1.216;2022-08-25T03:08:53;19.10;99.90
36446;DHT22;22472;50.848;-1.216;2022-08-25T03:11:20;19.10;99.90
36446;DHT22;22472;50.848;-1.216;2022-08-25T03:13:50;19.20;99.90
36446;DHT22;22472;50.848;-1.216;2022-08-25T03:16:17;19.10;99.90
36446;DHT22;22472;50.848;-1.216;2022-08-25T03:18:45;19.20;99.90
36446;DHT22;22472;50.848;-1.216;2022-08-25T03:21:13;19.20;99.90
36446;DHT22;22472;50.848;-1.216;2022-08-25T03:23:41;19.30;99.90
36446;DHT22;22472;50.848;-1.216;2022-08-25T03:26:09;19.20;99.90
36446;DHT22;22472;50.848;-1.216;2022-08-25T03:28:53;19.30;99.90
36446;DHT22;22472;50.848;-1.216;2022-08-25T03:31:21;19.30;99.90
36446;DHT22;22472;50.848;-1.216;2022-08-25T03:33:49;19.40;99.90
36446;DHT22;22472;50.848;-1.216;2022-08-25T03:36:16;19.40;99.90
36446;DHT22;22472;50.848;-1.216;2022-08-25T03:38:43;19.40;99.90
36446;DHT22;22472;50.848;-1.216;2022-08-25T03:41:12;19.40;99.90
36446;DHT22;22472;50.848;-1.216;2022-08-25T03:43:41;19.40;99.90
36446;DHT22;22472;50.848;-1.216;2022-08-25T03:46:08;19.40;99.90
36446;DHT22;22472;50.848;-1.216;2022-08-25T03:48:35;19.40;99.90
36446;DHT22;22472;50.848;-1.216;2022-08-25T03:51:04;19.50;99.90
36446;DHT22;22472;50.848;-1.216;2022-08-25T03:53:31;19.50;99.90
36446;DHT22;22472;50.848;-1.216;2022-08-25T03:55:58;19.40;99.90
36446;DHT22;22472;50.848;-1.216;2022-08-25T03:58:25;19.40;99.90
36446;DHT22;22472;50.848;-1.216;2022-08-25T04:00:52;19.40;99.90
36446;DHT22;22472;50.848;-1.216;2022-08-25T04:03:21;19.40;99.90
36446;DHT22;22472;50.848;-1.216;2022-08-25T04:05:48;19.30;99.90
36446;DHT22;22472;50.848;-1.216;2022-08-25T04:08:16;19.30;99.90
36446;DHT22;22472;50.848;-1.216;2022-08-25T04:10:43;19.30;99.90
36446;DHT22;22472;50.848;-1.216;2022-08-25T04:13:10;19.30;99.90
36446;DHT22;22472;50.848;-1.216;2022-08-25T04:15:41;19.30;99.90
36446;DHT22;22472;50.848;-1.216;2022-08-25T04:18:08;19.30;99.90
36446;DHT22;22472;50.848;-1.216;2022-08-25T04:20:38;19.30;99.90
36446;DHT22;22472;50.848;-1.216;2022-08-25T04:23:06;19.30;99.90
36446;DHT22;22472;50.848;-1.216;2022-08-25T04:25:38;19.40;99.90
36446;DHT22;22472;50.848;-1.216;2022-08-25T04:28:06;19.30;99.90
36446;DHT22;22472;50.848;-1.216;2022-08-25T04:30:33;19.40;99.90
36446;DHT22;22472;50.848;-1.216;2022-08-25T04:33:00;19.40;99.90
36446;DHT22;22472;50.848;-1.216;2022-08-25T04:35:27;19.40;99.90
36446;DHT22;22472;50.848;-1.216;2022-08-25T04:37:54;19.40;99.90
36446;DHT22;22472;50.848;-1.216;2022-08-25T04:40:21;19.40;99.90
36446;DHT22;22472;50.848;-1.216;2022-08-25T04:42:49;19.40;99.90
36446;DHT22;22472;50.848;-1.216;2022-08-25T04:45:17;19.40;99.90
36446;DHT22;22472;50.848;-1.216;2022-08-25T04:47:44;19.40;99.90
36446;DHT22;22472;50.848;-1.216;2022-08-25T04:50:11;19.40;99.90
36446;DHT22;22472;50.848;-1.216;2022-08-25T04:52:38;19.40;99.90
36446;DHT22;22472;50.848;-1.216;2022-08-25T04:55:05;19.40;99.90
36446;DHT22;22472;50.848;-1.216;2022-08-25T04:57:32;19.40;99.90
36446;DHT22;22472;50.848;-1.216;2022-08-25T05:00:01;19.40;99.90
36446;DHT22;22472;50.848;-1.216;2022-08-25T05:02:30;19.40;99.90
36446;DHT22;22472;50.848;-1.216;2022-08-25T05:04:57;19.30;99.90
36446;DHT22;22472;50.848;-1.216;2022-08-25T05:07:24;19.30;99.90
36446;DHT22;22472;50.848;-1.216;2022-08-25T05:09:51;19.30;99.90
36446;DHT22;22472;50.848;-1.216;2022-08-25T05:12:18;19.30;99.90
36446;DHT22;22472;50.848;-1.216;2022-08-25T05:14:45;19.40;99.90
36446;DHT22;22472;50.848;-1.216;2022-08-25T05:17:14;19.40;99.90
36446;DHT22;22472;50.848;-1.216;2022-08-25T05:19:41;19.40;99.90
36446;DHT22;22472;50.848;-1.216;2022-08-25T05:22:08;19.40;99.90
36446;DHT22;22472;50.848;-1.216;2022-08-25T05:24:35;19.40;99.90
36446;DHT22;22472;50.848;-1.216;2022-08-25T05:27:03;19.40;99.90
36446;DHT22;22472;50.848;-1.216;2022-08-25T05:29:30;19.30;99.90
36446;DHT22;22472;50.848;-1.216;2022-08-25T05:31:57;19.30;99.90
36446;DHT22;22472;50.848;-1.216;2022-08-25T05:34:25;19.20;99.90
36446;DHT22;22472;50.848;-1.216;2022-08-25T05:36:52;19.20;99.90
36446;DHT22;22472;50.848;-1.216;2022-08-25T05:39:21;19.20;99.90
36446;DHT22;22472;50.848;-1.216;2022-08-25T05:41:48;19.20;99.90
36446;DHT22;22472;50.848;-1.216;2022-08-25T05:44:15;19.20;99.90
36446;DHT22;22472;50.848;-1.216;2022-08-25T05:46:43;19.20;99.90
36446;DHT22;22472;50.848;-1.216;2022-08-25T05:49:10;19.20;99.90
36446;DHT22;22472;50.848;-1.216;2022-08-25T05:51:38;19.20;99.90
36446;DHT22;22472;50.848;-1.216;2022-08-25T05:54:05;19.20;99.90
36446;DHT22;22472;50.848;-1.216;2022-08-25T05:56:32;19.20;99.90
36446;DHT22;22472;50.848;-1.216;2022-08-25T05:58:59;19.20;99.90
36446;DHT22;22472;50.848;-1.216;2022-08-25T06:01:28;19.20;99.90
36446;DHT22;22472;50.848;-1.216;2022-08-25T06:04:13;19.20;99.90
36446;DHT22;22472;50.848;-1.216;2022-08-25T06:06:42;19.20;99.90
36446;DHT22;22472;50.848;-1.216;2022-08-25T06:09:09;19.20;99.90
36446;DHT22;22472;50.848;-1.216;2022-08-25T06:11:37;19.10;99.90
36446;DHT22;22472;50.848;-1.216;2022-08-25T06:14:05;19.10;99.90
36446;DHT22;22472;50.848;-1.216;2022-08-25T06:16:32;19.20;99.90
36446;DHT22;22472;50.848;-1.216;2022-08-25T06:18:59;19.10;99.90
36446;DHT22;22472;50.848;-1.216;2022-08-25T06:21:26;19.20;99.90
36446;DHT22;22472;50.848;-1.216;2022-08-25T06:23:55;19.20;99.90
36446;DHT22;22472;50.848;-1.216;2022-08-25T06:26:22;19.10;99.90
36446;DHT22;22472;50.848;-1.216;2022-08-25T06:28:49;19.10;99.90
36446;DHT22;22472;50.848;-1.216;2022-08-25T06:31:17;19.10;99.90
36446;DHT22;22472;50.848;-1.216;2022-08-25T06:33:45;19.00;99.90
36446;DHT22;22472;50.848;-1.216;2022-08-25T06:36:12;19.00;99.90
36446;DHT22;22472;50.848;-1.216;2022-08-25T06:38:40;19.00;99.90
36446;DHT22;22472;50.848;-1.216;2022-08-25T06:41:08;18.90;99.90
36446;DHT22;22472;50.848;-1.216;2022-08-25T06:43:37;18.90;99.90
36446;DHT22;22472;50.848;-1.216;2022-08-25T06:46:09;18.90;99.90
36446;DHT22;22472;50.848;-1.216;2022-08-25T06:48:36;18.90;99.90
36446;DHT22;22472;50.848;-1.216;2022-08-25T06:51:05;18.90;99.90
36446;DHT22;22472;50.848;-1.216;2022-08-25T06:53:32;18.90;99.90
36446;DHT22;22472;50.848;-1.216;2022-08-25T06:56:00;18.90;99.90
36446;DHT22;22472;50.848;-1.216;2022-08-25T06:58:28;18.90;99.90
36446;DHT22;22472;50.848;-1.216;2022-08-25T07:00:55;18.90;99.90
36446;DHT22;22472;50.848;-1.216;2022-08-25T07:03:22;19.00;99.90
36446;DHT22;22472;50.848;-1.216;2022-08-25T07:05:51;18.90;99.90
36446;DHT22;22472;50.848;-1.216;2022-08-25T07:08:18;19.00;99.90
36446;DHT22;22472;50.848;-1.216;2022-08-25T07:10:46;19.00;99.90
36446;DHT22;22472;50.848;-1.216;2022-08-25T07:13:13;19.00;99.90
36446;DHT22;22472;50.848;-1.216;2022-08-25T07:15:42;19.10;99.90
36446;DHT22;22472;50.848;-1.216;2022-08-25T07:18:10;19.10;99.90
36446;DHT22;22472;50.848;-1.216;2022-08-25T07:20:38;19.10;99.90
36446;DHT22;22472;50.848;-1.216;2022-08-25T07:23:05;19.10;99.90
36446;DHT22;22472;50.848;-1.216;2022-08-25T07:25:33;19.10;99.90
36446;DHT22;22472;50.848;-1.216;2022-08-25T07:28:00;19.10;99.90
36446;DHT22;22472;50.848;-1.216;2022-08-25T07:30:27;19.00;99.90
36446;DHT22;22472;50.848;-1.216;2022-08-25T07:32:56;19.00;99.90
36446;DHT22;22472;50.848;-1.216;2022-08-25T07:35:23;19.10;99.90
36446;DHT22;22472;50.848;-1.216;2022-08-25T07:37:52;19.10;99.90
36446;DHT22;22472;50.848;-1.216;2022-08-25T07:40:24;19.10;99.90
36446;DHT22;22472;50.848;-1.216;2022-08-25T07:42:52;19.20;99.90
36446;DHT22;22472;50.848;-1.216;2022-08-25T07:45:20;19.30;99.90
36446;DHT22;22472;50.848;-1.216;2022-08-25T07:47:55;19.30;99.90
36446;DHT22;22472;50.848;-1.216;2022-08-25T07:50:23;19.40;99.90
36446;DHT22;22472;50.848;-1.216;2022-08-25T07:52:50;19.40;99.90
36446;DHT22;22472;50.848;-1.216;2022-08-25T07:55:17;19.40;99.90
36446;DHT22;22472;50.848;-1.216;2022-08-25T07:57:45;19.40;99.90
36446;DHT22;22472;50.848;-1.216;2022-08-25T08:00:14;19.40;99.90
36446;DHT22;22472;50.848;-1.216;2022-08-25T08:02:42;19.50;99.90
36446;DHT22;22472;50.848;-1.216;2022-08-25T08:05:13;19.50;99.90
36446;DHT22;22472;50.848;-1.216;2022-08-25T08:07:40;19.50;99.90
36446;DHT22;22472;50.848;-1.216;2022-08-25T08:10:09;19.50;99.90
36446;DHT22;22472;50.848;-1.216;2022-08-25T08:12:37;19.60;99.90
36446;DHT22;22472;50.848;-1.216;2022-08-25T08:15:05;19.60;99.90
36446;DHT22;22472;50.848;-1.216;2022-08-25T08:17:33;19.70;99.90
36446;DHT22;22472;50.848;-1.216;2022-08-25T08:20:01;19.70;99.90
36446;DHT22;22472;50.848;-1.216;2022-08-25T08:22:33;19.80;99.90
36446;DHT22;22472;50.848;-1.216;2022-08-25T08:25:01;19.80;99.90
36446;DHT22;22472;50.848;-1.216;2022-08-25T08:27:28;19.80;99.90
36446;DHT22;22472;50.848;-1.216;2022-08-25T08:29:55;19.80;99.90
36446;DHT22;22472;50.848;-1.216;2022-08-25T08:32:22;19.80;99.90
36446;DHT22;22472;50.848;-1.216;2022-08-25T08:34:49;19.70;99.90
36446;DHT22;22472;50.848;-1.216;2022-08-25T08:37:16;19.70;99.90
36446;DHT22;22472;50.848;-1.216;2022-08-25T08:39:45;19.70;99.90
36446;DHT22;22472;50.848;-1.216;2022-08-25T08:42:19;19.70;99.90
36446;DHT22;22472;50.848;-1.216;2022-08-25T08:45:05;19.70;99.90
36446;DHT22;22472;50.848;-1.216;2022-08-25T08:47:45;19.80;99.90
36446;DHT22;22472;50.848;-1.216;2022-08-25T08:50:23;19.80;99.90
36446;DHT22;22472;50.848;-1.216;2022-08-25T08:52:56;19.80;99.90
36446;DHT22;22472;50.848;-1.216;2022-08-25T08:55:29;19.80;99.90
36446;DHT22;22472;50.848;-1.216;2022-08-25T08:57:59;19.80;99.90
36446;DHT22;22472;50.848;-1.216;2022-08-25T09:00:28;19.90;99.90
36446;DHT22;22472;50.848;-1.216;2022-08-25T09:03:02;19.90;99.90
36446;DHT22;22472;50.848;-1.216;2022-08-25T09:05:34;19.90;99.90
36446;DHT22;22472;50.848;-1.216;2022-08-25T09:08:04;19.90;99.90
36446;DHT22;22472;50.848;-1.216;2022-08-25T09:10:39;19.90;99.90
36446;DHT22;22472;50.848;-1.216;2022-08-25T09:13:17;19.90;99.90
36446;DHT22;22472;50.848;-1.216;2022-08-25T09:15:51;20.00;99.90
36446;DHT22;22472;50.848;-1.216;2022-08-25T09:18:46;20.00;99.90
36446;DHT22;22472;50.848;-1.216;2022-08-25T09:21:21;20.00;99.90
36446;DHT22;22472;50.848;-1.216;2022-08-25T09:24:03;20.00;99.90
36446;DHT22;22472;50.848;-1.216;2022-08-25T09:26:38;19.90;99.90
36446;DHT22;22472;50.848;-1.216;2022-08-25T09:29:07;19.60;99.90
36446;DHT22;22472;50.848;-1.216;2022-08-25T09:31:39;19.40;99.90
36446;DHT22;22472;50.848;-1.216;2022-08-25T09:34:10;19.20;99.90
36446;DHT22;22472;50.848;-1.216;2022-08-25T09:36:38;19.30;99.90
36446;DHT22;22472;50.848;-1.216;2022-08-25T09:39:06;19.40;99.90
36446;DHT22;22472;50.848;-1.216;2022-08-25T09:41:44;19.60;99.90
36446;DHT22;22472;50.848;-1.216;2022-08-25T09:44:21;19.80;99.90
36446;DHT22;22472;50.848;-1.216;2022-08-25T09:47:13;19.80;99.90
36446;DHT22;22472;50.848;-1.216;2022-08-25T09:49:43;20.00;99.90
36446;DHT22;22472;50.848;-1.216;2022-08-25T09:55:25;20.30;99.90
36446;DHT22;22472;50.848;-1.216;2022-08-25T09:57:55;20.50;99.90
36446;DHT22;22472;50.848;-1.216;2022-08-25T10:00:26;20.70;99.90
36446;DHT22;22472;50.848;-1.216;2022-08-25T10:03:07;20.70;99.90
36446;DHT22;22472;50.848;-1.216;2022-08-25T10:05:48;20.80;99.90
36446;DHT22;22472;50.848;-1.216;2022-08-25T10:08:26;20.80;99.90
36446;DHT22;22472;50.848;-1.216;2022-08-25T10:10:57;20.90;99.90
36446;DHT22;22472;50.848;-1.216;2022-08-25T10:13:36;21.00;99.90
36446;DHT22;22472;50.848;-1.216;2022-08-25T10:16:06;21.10;99.90
36446;DHT22;22472;50.848;-1.216;2022-08-25T10:18:33;21.50;99.90
36446;DHT22;22472;50.848;-1.216;2022-08-25T10:21:07;21.70;99.90
36446;DHT22;22472;50.848;-1.216;2022-08-25T10:23:37;22.00;99.90
36446;DHT22;22472;50.848;-1.216;2022-08-25T10:26:12;22.20;99.90
36446;DHT22;22472;50.848;-1.216;2022-08-25T10:28:51;22.30;99.90
36446;DHT22;22472;50.848;-1.216;2022-08-25T10:31:23;22.40;99.90
36446;DHT22;22472;50.848;-1.216;2022-08-25T10:34:06;22.40;99.90
36446;DHT22;22472;50.848;-1.216;2022-08-25T10:36:41;22.50;99.90
36446;DHT22;22472;50.848;-1.216;2022-08-25T10:39:21;22.60;99.90
36446;DHT22;22472;50.848;-1.216;2022-08-25T10:42:00;22.80;99.90
36446;DHT22;22472;50.848;-1.216;2022-08-25T10:44:34;22.90;99.90
36446;DHT22;22472;50.848;-1.216;2022-08-25T10:47:37;23.10;99.90
36446;DHT22;22472;50.848;-1.216;2022-08-25T10:50:13;23.20;99.90
36446;DHT22;22472;50.848;-1.216;2022-08-25T10:52:57;23.70;99.90
36446;DHT22;22472;50.848;-1.216;2022-08-25T10:55:36;23.50;99.90
36446;DHT22;22472;50.848;-1.216;2022-08-25T10:58:13;23.20;99.90
36446;DHT22;22472;50.848;-1.216;2022-08-25T11:00:51;23.30;99.90
36446;DHT22;22472;50.848;-1.216;2022-08-25T11:03:29;23.20;99.90
36446;DHT22;22472;50.848;-1.216;2022-08-25T11:06:02;23.40;99.90
36446;DHT22;22472;50.848;-1.216;2022-08-25T11:08:34;23.80;99.90
36446;DHT22;22472;50.848;-1.216;2022-08-25T11:11:05;24.30;99.90
36446;DHT22;22472;50.848;-1.216;2022-08-25T11:13:41;24.10;99.90
36446;DHT22;22472;50.848;-1.216;2022-08-25T11:16:14;24.00;99.90
36446;DHT22;22472;50.848;-1.216;2022-08-25T11:18:49;24.10;99.90
36446;DHT22;22472;50.848;-1.216;2022-08-25T11:21:19;24.40;99.90
36446;DHT22;22472;50.848;-1.216;2022-08-25T11:23:54;24.40;99.90
36446;DHT22;22472;50.848;-1.216;2022-08-25T11:26:27;24.40;99.90
36446;DHT22;22472;50.848;-1.216;2022-08-25T11:29:02;24.80;99.90
36446;DHT22;22472;50.848;-1.216;2022-08-25T11:31:37;24.80;99.90
36446;DHT22;22472;50.848;-1.216;2022-08-25T11:34:08;24.90;99.90
36446;DHT22;22472;50.848;-1.216;2022-08-25T11:36:37;25.20;99.90
36446;DHT22;22472;50.848;-1.216;2022-08-25T11:39:14;25.40;99.90
36446;DHT22;22472;50.848;-1.216;2022-08-25T11:41:51;25.50;99.90
36446;DHT22;22472;50.848;-1.216;2022-08-25T11:44:43;25.70;99.90
36446;DHT22;22472;50.848;-1.216;2022-08-25T11:47:28;26.00;99.90
36446;DHT22;22472;50.848;-1.216;2022-08-25T11:49:59;25.80;99.90
36446;DHT22;22472;50.848;-1.216;2022-08-25T11:52:40;25.80;99.90
36446;DHT22;22472;50.848;-1.216;2022-08-25T11:55:10;25.70;99.90
36446;DHT22;22472;50.848;-1.216;2022-08-25T11:57:38;25.60;99.90
36446;DHT22;22472;50.848;-1.216;2022-08-25T12:00:10;25.70;99.90
36446;DHT22;22472;50.848;-1.216;2022-08-25T12:02:42;25.50;99.90
36446;DHT22;22472;50.848;-1.216;2022-08-25T12:05:48;25.30;99.90
36446;DHT22;22472;50.848;-1.216;2022-08-25T12:08:01;25.30;99.90
36446;DHT22;22472;50.848;-1.216;2022-08-25T12:11:04;25.60;99.90
36446;DHT22;22472;50.848;-1.216;2022-08-25T12:13:51;25.90;99.90
36446;DHT22;22472;50.848;-1.216;2022-08-25T12:16:41;26.00;99.90
36446;DHT22;22472;50.848;-1.216;2022-08-25T12:19:28;25.90;99.90
36446;DHT22;22472;50.848;-1.216;2022-08-25T12:24:51;25.90;99.90
36446;DHT22;22472;50.848;-1.216;2022-08-25T12:27:24;25.50;99.90
36446;DHT22;22472;50.848;-1.216;2022-08-25T12:29:57;25.30;99.90
36446;DHT22;22472;50.848;-1.216;2022-08-25T12:35:29;24.70;99.90
36446;DHT22;22472;50.848;-1.216;2022-08-25T12:37:59;24.90;99.90
36446;DHT22;22472;50.848;-1.216;2022-08-25T12:40:31;24.60;99.90
36446;DHT22;22472;50.848;-1.216;2022-08-25T12:43:06;24.40;99.90
36446;DHT22;22472;50.848;-1.216;2022-08-25T12:45:40;24.10;99.90
36446;DHT22;22472;50.848;-1.216;2022-08-25T12:48:40;23.80;99.90
36446;DHT22;22472;50.848;-1.216;2022-08-25T12:51:16;23.40;99.90
36446;DHT22;22472;50.848;-1.216;2022-08-25T12:53:46;23.10;99.90
36446;DHT22;22472;50.848;-1.216;2022-08-25T12:56:26;23.10;99.90
36446;DHT22;22472;50.848;-1.216;2022-08-25T12:59:14;23.00;99.90
36446;DHT22;22472;50.848;-1.216;2022-08-25T13:05:02;23.20;99.90
36446;DHT22;22472;50.848;-1.216;2022-08-25T13:07:47;22.90;99.90
36446;DHT22;22472;50.848;-1.216;2022-08-25T13:10:37;22.60;99.90
36446;DHT22;22472;50.848;-1.216;2022-08-25T13:13:14;22.60;99.90
36446;DHT22;22472;50.848;-1.216;2022-08-25T13:15:44;22.50;99.90
36446;DHT22;22472;50.848;-1.216;2022-08-25T13:18:14;22.40;99.90
36446;DHT22;22472;50.848;-1.216;2022-08-25T13:20:41;22.40;99.90
36446;DHT22;22472;50.848;-1.216;2022-08-25T13:23:10;22.30;99.90
36446;DHT22;22472;50.848;-1.216;2022-08-25T13:25:46;22.20;99.90
36446;DHT22;22472;50.848;-1.216;2022-08-25T13:28:21;22.20;99.90
36446;DHT22;22472;50.848;-1.216;2022-08-25T13:31:00;22.30;99.90
36446;DHT22;22472;50.848;-1.216;2022-08-25T13:33:28;22.30;99.90
36446;DHT22;22472;50.848;-1.216;2022-08-25T13:35:56;22.30;99.90
36446;DHT22;22472;50.848;-1.216;2022-08-25T13:38:44;22.60;99.90
36446;DHT22;22472;50.848;-1.216;2022-08-25T13:41:20;22.80;99.90
36446;DHT22;22472;50.848;-1.216;2022-08-25T13:43:48;22.70;99.90
36446;DHT22;22472;50.848;-1.216;2022-08-25T13:46:20;22.60;99.90
36446;DHT22;22472;50.848;-1.216;2022-08-25T13:48:47;22.40;99.90
36446;DHT22;22472;50.848;-1.216;2022-08-25T13:51:20;22.10;99.90
36446;DHT22;22472;50.848;-1.216;2022-08-25T13:53:55;21.80;99.90
36446;DHT22;22472;50.848;-1.216;2022-08-25T13:56:29;21.60;99.90
36446;DHT22;22472;50.848;-1.216;2022-08-25T13:58:58;21.50;99.90
36446;DHT22;22472;50.848;-1.216;2022-08-25T14:01:29;21.50;99.90
36446;DHT22;22472;50.848;-1.216;2022-08-25T14:04:19;21.40;99.90
36446;DHT22;22472;50.848;-1.216;2022-08-25T14:06:46;21.70;99.90
36446;DHT22;22472;50.848;-1.216;2022-08-25T14:09:16;21.70;99.90
36446;DHT22;22472;50.848;-1.216;2022-08-25T14:11:45;22.00;99.90
36446;DHT22;22472;50.848;-1.216;2022-08-25T14:14:29;22.10;99.90
36446;DHT22;22472;50.848;-1.216;2022-08-25T14:17:03;21.90;99.90
36446;DHT22;22472;50.848;-1.216;2022-08-25T14:19:31;21.90;99.90
36446;DHT22;22472;50.848;-1.216;2022-08-25T14:21:59;21.60;99.90
36446;DHT22;22472;50.848;-1.216;2022-08-25T14:24:33;21.50;99.90
36446;DHT22;22472;50.848;-1.216;2022-08-25T14:27:00;21.60;99.90
36446;DHT22;22472;50.848;-1.216;2022-08-25T14:29:28;21.40;99.90
36446;DHT22;22472;50.848;-1.216;2022-08-25T14:31:57;21.40;99.90
36446;DHT22;22472;50.848;-1.216;2022-08-25T14:34:28;21.40;99.90
36446;DHT22;22472;50.848;-1.216;2022-08-25T14:36:58;21.60;99.90
36446;DHT22;22472;50.848;-1.216;2022-08-25T14:39:25;21.70;99.90
36446;DHT22;22472;50.848;-1.216;2022-08-25T14:41:55;21.70;99.90
36446;DHT22;22472;50.848;-1.216;2022-08-25T14:44:22;21.60;99.90
36446;DHT22;22472;50.848;-1.216;2022-08-25T14:46:51;21.40;99.90
36446;DHT22;22472;50.848;-1.216;2022-08-25T14:49:20;21.40;99.90
36446;DHT22;22472;50.848;-1.216;2022-08-25T14:51:48;21.30;99.90
36446;DHT22;22472;50.848;-1.216;2022-08-25T14:54:16;21.20;99.90
36446;DHT22;22472;50.848;-1.216;2022-08-25T14:56:45;21.00;99.90
36446;DHT22;22472;50.848;-1.216;2022-08-25T14:59:14;20.90;99.90
36446;DHT22;22472;50.848;-1.216;2022-08-25T15:01:41;20.80;99.90
36446;DHT22;22472;50.848;-1.216;2022-08-25T15:04:10;20.80;99.90
36446;DHT22;22472;50.848;-1.216;2022-08-25T15:06:39;20.90;99.90
36446;DHT22;22472;50.848;-1.216;2022-08-25T15:09:08;20.80;99.90
36446;DHT22;22472;50.848;-1.216;2022-08-25T15:11:39;20.70;99.90
36446;DHT22;22472;50.848;-1.216;2022-08-25T15:14:07;20.50;99.90
36446;DHT22;22472;50.848;-1.216;2022-08-25T15:16:39;20.60;99.90
36446;DHT22;22472;50.848;-1.216;2022-08-25T15:19:09;20.70;99.90
36446;DHT22;22472;50.848;-1.216;2022-08-25T15:21:39;20.90;99.90
36446;DHT22;22472;50.848;-1.216;2022-08-25T15:24:08;21.20;99.90
36446;DHT22;22472;50.848;-1.216;2022-08-25T15:26:39;21.50;99.90
36446;DHT22;22472;50.848;-1.216;2022-08-25T15:29:08;21.80;99.90
36446;DHT22;22472;50.848;-1.216;2022-08-25T15:31:36;22.10;99.90
36446;DHT22;22472;50.848;-1.216;2022-08-25T15:34:04;22.30;99.90
36446;DHT22;22472;50.848;-1.216;2022-08-25T15:36:32;22.40;99.90
36446;DHT22;22472;50.848;-1.216;2022-08-25T15:38:59;22.00;99.90
36446;DHT22;22472;50.848;-1.216;2022-08-25T15:41:26;21.70;99.90
36446;DHT22;22472;50.848;-1.216;2022-08-25T15:43:54;21.70;99.90
36446;DHT22;22472;50.848;-1.216;2022-08-25T15:46:23;21.80;99.90
36446;DHT22;22472;50.848;-1.216;2022-08-25T15:48:51;21.90;99.90